Time;durP1;ratioP1;P1;durP2;ratioP2;P2;SDS_P1;SDS_P2;PMS_P1;PMS_P2;Temp;Humidity;BMP_temperature;BMP_pressure;BME280_temperature;BME280_humidity;BME280_pressure;Samples;Min_cycle;Max_cycle;Signal;HPM_P1;HPM_P2
2024/04/08 00:01:27;;;;;;;7.63;0.93;;;13.40;99.90;;;;;;4983180;28;20041;-71
2024/04/08 00:03:53;;;;;;;11.48;2.33;;;13.10;99.90;;;;;;5013365;28;20537;-71
2024/04/08 00:06:18;;;;;;;10.18;1.63;;;13.20;99.90;;;;;;4980134;28;20042;-71
2024/04/08 00:08:44;;;;;;;7.15;1.77;;;13.20;99.90;;;;;;4979721;28;20039;-70
2024/04/08 00:11:10;;;;;;;7.00;1.55;;;13.10;99.90;;;;;;4983151;28;20483;-70
2024/04/08 00:13:39;;;;;;;4.63;1.02;;;13.10;99.90;;;;;;4982897;28;20049;-71
2024/04/08 00:16:05;;;;;;;7.40;1.58;;;13.10;99.90;;;;;;4985964;28;20540;-71
2024/04/08 00:18:31;;;;;;;8.35;1.88;;;13.10;99.90;;;;;;4983549;28;20058;-71
2024/04/08 00:21:04;;;;;;;8.25;1.67;;;13.10;99.90;;;;;;4984657;28;20057;-71
2024/04/08 00:23:31;;;;;;;4.45;1.08;;;13.10;99.90;;;;;;4985166;28;20046;-71
2024/04/08 00:26:01;;;;;;;7.63;1.55;;;13.10;99.90;;;;;;4978944;28;20046;-71
2024/04/08 00:28:26;;;;;;;8.27;1.85;;;13.10;99.90;;;;;;4986016;28;20440;-71
2024/04/08 00:31:03;;;;;;;7.95;1.75;;;13.00;99.90;;;;;;4982180;28;20122;-71
2024/04/08 00:33:30;;;;;;;6.82;1.50;;;13.00;99.90;;;;;;4979212;28;20037;-70
2024/04/08 00:35:55;;;;;;;6.90;1.38;;;13.00;99.90;;;;;;4984497;28;20493;-70
2024/04/08 00:38:21;;;;;;;6.93;1.75;;;13.00;99.90;;;;;;4981084;28;20121;-70
2024/04/08 00:40:47;;;;;;;9.25;1.80;;;13.00;99.90;;;;;;4983032;28;20053;-71
2024/04/08 00:43:12;;;;;;;7.50;1.75;;;13.00;99.90;;;;;;4977038;28;20128;-71
2024/04/08 00:45:41;;;;;;;9.15;1.52;;;13.00;99.90;;;;;;4985818;28;20060;-71
2024/04/08 00:48:08;;;;;;;7.22;2.00;;;13.00;99.90;;;;;;4983970;28;20405;-71
2024/04/08 00:50:35;;;;;;;7.30;2.03;;;13.00;99.90;;;;;;4987231;28;20053;-71
2024/04/08 00:53:01;;;;;;;12.38;2.65;;;13.00;99.90;;;;;;4984847;28;20057;-72
2024/04/08 00:55:28;;;;;;;6.03;1.20;;;13.00;99.90;;;;;;4978171;28;20051;-71
2024/04/08 00:57:56;;;;;;;8.55;1.73;;;12.90;99.90;;;;;;4987205;28;20405;-71
2024/04/08 01:00:22;;;;;;;6.00;1.50;;;12.90;99.90;;;;;;4982857;28;20035;-71
2024/04/08 01:02:47;;;;;;;10.52;2.22;;;13.00;99.90;;;;;;4988819;28;20041;-71
2024/04/08 01:05:14;;;;;;;6.18;1.77;;;13.00;99.90;;;;;;5013445;28;20035;-71
2024/04/08 01:07:42;;;;;;;8.02;1.40;;;12.90;99.90;;;;;;4983056;28;20365;-71
2024/04/08 01:10:09;;;;;;;11.40;2.40;;;12.90;99.90;;;;;;5015338;28;20061;-71
2024/04/08 01:12:34;;;;;;;8.02;1.30;;;12.90;99.90;;;;;;4985102;28;20125;-71
2024/04/08 01:15:01;;;;;;;9.15;2.05;;;12.90;99.90;;;;;;4984242;28;20065;-72
2024/04/08 01:17:27;;;;;;;9.15;2.25;;;12.90;99.90;;;;;;4981118;28;20721;-72
2024/04/08 01:19:53;;;;;;;9.30;2.03;;;12.90;99.90;;;;;;4983397;28;20042;-72
2024/04/08 01:22:18;;;;;;;10.38;1.77;;;12.80;99.90;;;;;;4983012;28;20038;-72
2024/04/08 01:24:44;;;;;;;10.25;2.83;;;12.90;99.90;;;;;;4980413;28;20490;-72
2024/04/08 01:27:10;;;;;;;11.20;1.83;;;12.80;99.90;;;;;;4983622;28;20035;-72
2024/04/08 01:29:38;;;;;;;5.07;1.45;;;13.00;99.90;;;;;;4985152;28;20097;-72
2024/04/08 01:32:04;;;;;;;10.10;1.98;;;12.80;99.90;;;;;;4986040;28;20048;-71
2024/04/08 01:34:29;;;;;;;8.35;1.92;;;12.80;99.90;;;;;;4980798;28;20039;-72
2024/04/08 01:36:55;;;;;;;10.60;2.08;;;12.80;99.90;;;;;;4984285;28;20062;-71
2024/04/08 01:39:21;;;;;;;7.03;2.42;;;12.80;99.90;;;;;;5012352;28;20167;-71
2024/04/08 01:41:47;;;;;;;7.70;1.80;;;12.80;99.90;;;;;;4983071;28;20036;-72
2024/04/08 01:44:12;;;;;;;5.60;1.92;;;12.70;99.90;;;;;;4981755;28;20125;-72
2024/04/08 01:46:38;;;;;;;7.53;1.75;;;12.80;99.90;;;;;;4984032;28;20030;-71
2024/04/08 01:49:04;;;;;;;7.60;1.65;;;12.80;99.90;;;;;;4984992;28;20120;-71
2024/04/08 01:51:30;;;;;;;8.57;1.80;;;12.80;99.90;;;;;;4987185;28;20038;-71
2024/04/08 01:53:55;;;;;;;8.70;1.88;;;12.70;99.90;;;;;;4986005;28;20113;-71
2024/04/08 01:56:21;;;;;;;8.77;2.35;;;12.80;99.90;;;;;;5016145;28;20031;-72
2024/04/08 01:58:47;;;;;;;7.93;2.25;;;12.90;99.90;;;;;;4988384;28;20551;-72
2024/04/08 02:01:13;;;;;;;6.70;2.53;;;12.80;99.90;;;;;;4986176;28;20064;-71
2024/04/08 02:03:39;;;;;;;5.20;1.58;;;12.90;99.90;;;;;;4986741;28;21456;-71
2024/04/08 02:06:04;;;;;;;6.90;1.48;;;12.80;99.90;;;;;;4987735;28;20049;-71
2024/04/08 02:08:30;;;;;;;5.28;2.05;;;13.00;99.90;;;;;;4989658;28;20039;-72
2024/04/08 02:10:55;;;;;;;7.13;2.40;;;12.90;99.90;;;;;;4988097;28;20073;-72
2024/04/08 02:13:21;;;;;;;4.93;2.03;;;12.80;99.90;;;;;;4988164;28;20089;-72
2024/04/08 02:15:47;;;;;;;4.93;1.83;;;13.10;99.90;;;;;;4985957;28;20391;-72
2024/04/08 02:18:12;;;;;;;5.95;1.98;;;12.90;99.90;;;;;;4988378;28;20042;-71
2024/04/08 02:20:38;;;;;;;5.93;2.13;;;12.90;99.90;;;;;;4983162;28;20043;-72
2024/04/08 02:23:04;;;;;;;2.97;1.40;;;12.90;99.90;;;;;;4985017;28;20066;-71
2024/04/08 02:25:30;;;;;;;11.05;2.33;;;12.90;99.90;;;;;;4984280;28;20038;-71
2024/04/08 02:27:55;;;;;;;6.25;1.88;;;13.00;99.90;;;;;;4985785;28;20502;-71
2024/04/08 02:30:22;;;;;;;3.85;1.65;;;12.90;99.90;;;;;;4986047;28;20049;-72
2024/04/08 02:32:47;;;;;;;5.55;1.92;;;12.90;99.90;;;;;;4987192;28;20055;-71
2024/04/08 02:35:14;;;;;;;4.75;1.85;;;12.90;99.90;;;;;;4985553;28;20057;-71
2024/04/08 02:37:42;;;;;;;4.93;2.22;;;12.90;99.90;;;;;;5015909;28;20047;-71
2024/04/08 02:40:10;;;;;;;5.07;2.10;;;12.90;99.90;;;;;;4983932;28;20162;-71
2024/04/08 02:42:36;;;;;;;5.13;2.05;;;12.90;99.90;;;;;;4985446;28;20117;-71
2024/04/08 02:45:03;;;;;;;7.32;2.30;;;13.00;99.90;;;;;;4987014;28;20125;-71
2024/04/08 02:47:28;;;;;;;7.30;1.85;;;13.00;99.90;;;;;;4980392;28;20108;-72
2024/04/08 02:49:54;;;;;;;7.13;2.45;;;12.90;99.90;;;;;;4987940;28;20050;-71
2024/04/08 02:52:19;;;;;;;9.45;1.90;;;12.90;99.90;;;;;;4986503;28;20042;-71
2024/04/08 02:54:45;;;;;;;5.13;2.03;;;12.90;99.90;;;;;;4985487;28;20060;-71
2024/04/08 02:57:11;;;;;;;3.78;2.05;;;13.00;99.90;;;;;;4987760;28;20043;-71
2024/04/08 02:59:36;;;;;;;6.30;2.28;;;12.90;99.90;;;;;;5017446;28;20046;-71
2024/04/08 03:02:02;;;;;;;4.65;2.35;;;12.90;99.90;;;;;;4987037;28;20043;-71
2024/04/08 03:04:28;;;;;;;5.43;1.75;;;12.90;99.90;;;;;;4984866;28;20507;-71
2024/04/08 03:06:53;;;;;;;4.95;1.90;;;12.90;99.90;;;;;;5017231;28;20130;-71
2024/04/08 03:09:19;;;;;;;4.18;1.58;;;12.90;99.90;;;;;;4985694;28;20046;-71
2024/04/08 03:11:45;;;;;;;6.50;2.53;;;12.80;99.90;;;;;;4987185;28;20124;-71
2024/04/08 03:14:11;;;;;;;4.15;2.40;;;12.80;99.90;;;;;;4989456;28;20070;-71
2024/04/08 03:16:37;;;;;;;6.53;2.10;;;12.80;99.90;;;;;;4985700;28;20540;-71
2024/04/08 03:19:03;;;;;;;4.65;2.35;;;12.90;99.90;;;;;;4986779;28;20054;-71
2024/04/08 03:21:29;;;;;;;5.40;2.13;;;12.80;99.90;;;;;;4988848;28;20041;-71
2024/04/08 03:23:57;;;;;;;4.95;2.03;;;12.80;99.90;;;;;;4987680;28;20038;-71
2024/04/08 03:26:23;;;;;;;4.53;2.17;;;12.70;99.90;;;;;;4988296;28;20113;-71
2024/04/08 03:28:49;;;;;;;5.15;2.00;;;12.90;99.90;;;;;;4990834;28;20468;-71
2024/04/08 03:31:15;;;;;;;6.18;2.25;;;12.80;99.90;;;;;;4986564;28;20070;-71
2024/04/08 03:33:40;;;;;;;5.57;2.55;;;12.80;99.90;;;;;;4992086;28;20112;-71
2024/04/08 03:36:10;;;;;;;4.18;1.85;;;12.80;99.90;;;;;;4984120;28;20412;-71
2024/04/08 03:38:36;;;;;;;5.63;2.20;;;12.80;99.90;;;;;;4991065;28;20042;-71
2024/04/08 03:41:06;;;;;;;6.38;2.63;;;12.80;99.90;;;;;;4986499;28;20477;-71
2024/04/08 03:43:32;;;;;;;4.13;1.77;;;12.80;99.90;;;;;;4984645;28;20034;-71
2024/04/08 03:45:58;;;;;;;7.22;2.22;;;12.80;99.90;;;;;;4983076;28;20038;-71
2024/04/08 03:48:24;;;;;;;3.67;2.17;;;12.80;99.90;;;;;;4988046;28;20510;-71
2024/04/08 03:50:50;;;;;;;5.85;2.47;;;12.80;99.90;;;;;;4985223;28;20054;-71
2024/04/08 03:53:16;;;;;;;5.10;2.33;;;12.80;99.90;;;;;;5016911;28;20463;-71
2024/04/08 03:55:42;;;;;;;7.15;1.77;;;12.70;99.90;;;;;;4984623;28;20508;-71
2024/04/08 03:58:08;;;;;;;5.55;1.98;;;12.80;99.90;;;;;;4986842;28;20074;-71
2024/04/08 04:00:34;;;;;;;5.68;2.53;;;12.80;99.90;;;;;;4984541;28;20046;-71
2024/04/08 04:03:00;;;;;;;9.45;2.70;;;12.80;99.90;;;;;;4982836;28;20053;-71
2024/04/08 04:05:25;;;;;;;3.40;2.08;;;12.80;99.90;;;;;;4982668;28;20043;-71
2024/04/08 04:07:51;;;;;;;7.18;2.45;;;12.80;99.90;;;;;;4984841;28;20049;-71
2024/04/08 04:10:20;;;;;;;4.88;1.88;;;12.80;99.90;;;;;;4983310;28;20168;-71
2024/04/08 04:12:45;;;;;;;3.78;2.20;;;12.80;99.90;;;;;;4982830;28;20037;-71
2024/04/08 04:15:14;;;;;;;5.15;2.65;;;12.90;99.90;;;;;;4984971;28;20043;-71
2024/04/08 04:17:40;;;;;;;4.93;2.17;;;12.80;99.90;;;;;;4983658;28;20034;-71
2024/04/08 04:20:11;;;;;;;4.68;2.38;;;12.90;99.90;;;;;;4985381;28;20077;-71
2024/04/08 04:22:37;;;;;;;4.90;2.38;;;12.90;99.90;;;;;;4984874;28;20544;-71
2024/04/08 04:25:03;;;;;;;5.38;2.58;;;12.90;99.90;;;;;;4984391;28;20122;-71
2024/04/08 04:27:29;;;;;;;8.40;2.75;;;12.90;99.90;;;;;;4981898;28;20477;-71
2024/04/08 04:29:55;;;;;;;6.78;2.95;;;12.90;99.90;;;;;;4984700;28;20088;-71
2024/04/08 04:32:20;;;;;;;5.10;2.22;;;12.90;99.90;;;;;;4985152;28;20089;-71
2024/04/08 04:34:49;;;;;;;6.10;2.85;;;12.80;99.90;;;;;;4985048;28;20070;-71
2024/04/08 04:37:15;;;;;;;5.55;2.78;;;12.90;99.90;;;;;;4985094;28;20049;-71
2024/04/08 04:39:40;;;;;;;5.20;2.55;;;12.90;99.90;;;;;;4984409;28;20034;-71
2024/04/08 04:42:06;;;;;;;8.85;3.25;;;12.90;99.90;;;;;;4983428;28;20033;-71
2024/04/08 04:44:32;;;;;;;4.68;3.30;;;12.90;99.90;;;;;;4984059;28;20041;-71
2024/04/08 04:46:58;;;;;;;5.85;3.05;;;13.00;99.90;;;;;;4981538;28;20038;-71
2024/04/08 04:49:23;;;;;;;7.93;3.92;;;12.90;99.90;;;;;;4959652;28;20140;-71
2024/04/08 04:51:50;;;;;;;6.53;2.65;;;12.90;99.90;;;;;;4977243;28;20038;-71
2024/04/08 04:54:16;;;;;;;6.72;4.18;;;12.80;99.90;;;;;;4985422;28;20065;-70
2024/04/08 04:56:41;;;;;;;6.93;3.33;;;12.80;99.90;;;;;;4983179;28;20046;-71
2024/04/08 04:59:07;;;;;;;5.45;3.40;;;12.80;99.90;;;;;;4981816;28;20038;-71
2024/04/08 05:01:33;;;;;;;6.90;3.35;;;12.90;99.90;;;;;;4981746;28;20030;-71
2024/04/08 05:03:58;;;;;;;6.72;3.90;;;12.80;99.90;;;;;;5012603;28;20103;-71
2024/04/08 05:06:24;;;;;;;5.97;3.25;;;12.80;99.90;;;;;;4985012;28;20030;-70
2024/04/08 05:08:49;;;;;;;8.95;3.33;;;12.90;99.90;;;;;;4988413;28;20041;-71
2024/04/08 05:11:15;;;;;;;7.75;3.38;;;12.90;99.90;;;;;;4986698;28;20096;-71
2024/04/08 05:13:41;;;;;;;4.70;3.35;;;12.90;99.90;;;;;;4983322;28;20101;-71
2024/04/08 05:16:07;;;;;;;8.35;3.78;;;12.90;99.90;;;;;;4983323;28;20157;-71
2024/04/08 05:18:33;;;;;;;5.60;3.80;;;12.90;99.90;;;;;;4983120;28;20045;-71
2024/04/08 05:20:59;;;;;;;5.18;3.15;;;12.90;99.90;;;;;;4983992;28;20038;-71
2024/04/08 05:23:26;;;;;;;4.82;3.22;;;12.90;99.90;;;;;;4986666;28;20042;-71
2024/04/08 05:25:55;;;;;;;5.82;3.70;;;12.90;99.90;;;;;;4986232;28;20120;-71
2024/04/08 05:28:22;;;;;;;5.72;4.03;;;12.90;99.90;;;;;;4987199;28;20133;-71
2024/04/08 05:30:48;;;;;;;7.85;3.47;;;13.00;99.90;;;;;;4987100;28;20710;-71
2024/04/08 05:33:15;;;;;;;7.32;3.72;;;12.90;99.90;;;;;;4988776;28;20125;-71
2024/04/08 05:35:41;;;;;;;5.20;3.50;;;13.00;99.90;;;;;;4987011;28;20069;-71
2024/04/08 05:38:07;;;;;;;5.90;3.85;;;12.90;99.90;;;;;;4985410;28;20027;-71
2024/04/08 05:40:37;;;;;;;5.65;3.42;;;12.90;99.90;;;;;;4985158;28;20122;-70
2024/04/08 05:43:04;;;;;;;5.47;3.67;;;12.90;99.90;;;;;;4986389;28;20389;-70
2024/04/08 05:45:30;;;;;;;6.07;3.45;;;12.90;99.90;;;;;;4987204;28;20481;-70
2024/04/08 05:47:56;;;;;;;4.50;3.50;;;13.00;99.90;;;;;;4984987;28;20089;-70
2024/04/08 05:50:23;;;;;;;6.30;3.80;;;13.00;99.90;;;;;;4985916;28;20085;-70
2024/04/08 05:52:49;;;;;;;6.75;3.92;;;13.10;99.90;;;;;;5017734;28;20046;-70
2024/04/08 05:55:15;;;;;;;9.65;3.70;;;13.40;99.90;;;;;;4983697;28;20133;-70
2024/04/08 05:57:41;;;;;;;5.70;3.55;;;13.20;99.90;;;;;;4986605;28;20121;-70
2024/04/08 06:00:10;;;;;;;7.60;3.47;;;13.20;99.90;;;;;;4986895;28;20049;-70
2024/04/08 06:02:36;;;;;;;5.50;3.78;;;13.20;99.90;;;;;;4988444;28;20095;-70
2024/04/08 06:05:02;;;;;;;5.80;3.90;;;13.40;99.90;;;;;;4982299;28;20073;-70
2024/04/08 06:07:28;;;;;;;7.20;3.38;;;13.20;99.90;;;;;;4983411;28;20031;-70
2024/04/08 06:09:54;;;;;;;8.75;3.42;;;13.30;99.90;;;;;;4965938;28;20118;-70
2024/04/08 06:12:19;;;;;;;7.18;3.50;;;13.30;99.90;;;;;;4982959;28;20571;-70
2024/04/08 06:14:45;;;;;;;4.85;3.47;;;13.30;99.90;;;;;;4985257;28;20049;-70
2024/04/08 06:17:11;;;;;;;5.95;3.70;;;13.60;99.90;;;;;;4985709;28;20070;-70
2024/04/08 06:19:37;;;;;;;7.78;3.45;;;13.30;99.90;;;;;;4986920;28;20096;-70
2024/04/08 06:22:03;;;;;;;6.90;3.30;;;13.40;99.90;;;;;;5017066;28;20508;-69
2024/04/08 06:24:28;;;;;;;5.60;3.28;;;13.40;99.90;;;;;;4981490;28;20473;-70
2024/04/08 06:26:54;;;;;;;4.85;2.90;;;13.60;99.90;;;;;;4985216;28;20121;-70
2024/04/08 06:29:20;;;;;;;5.50;3.30;;;13.40;99.90;;;;;;5020358;28;20059;-70
2024/04/08 06:31:46;;;;;;;5.47;3.58;;;13.40;99.90;;;;;;4984071;28;20034;-69
2024/04/08 06:34:11;;;;;;;8.10;3.70;;;13.50;99.90;;;;;;4982168;28;20031;-70
2024/04/08 06:36:37;;;;;;;5.70;3.40;;;13.30;99.90;;;;;;4981102;28;20108;-70
2024/04/08 06:39:03;;;;;;;9.20;3.22;;;13.30;99.90;;;;;;4984148;28;20034;-69
2024/04/08 06:41:28;;;;;;;7.40;3.92;;;13.40;99.90;;;;;;4983564;28;20046;-69
2024/04/08 06:43:54;;;;;;;5.07;3.53;;;13.40;99.90;;;;;;4982796;28;20042;-70
2024/04/08 06:46:20;;;;;;;6.22;3.60;;;13.40;99.90;;;;;;4984751;28;20035;-70
2024/04/08 06:48:45;;;;;;;4.70;3.35;;;13.40;99.90;;;;;;4983621;28;20046;-70
2024/04/08 06:51:11;;;;;;;5.47;3.38;;;13.40;99.90;;;;;;4981657;28;20128;-70
2024/04/08 06:53:37;;;;;;;7.07;3.38;;;13.40;99.90;;;;;;4983810;28;20116;-70
2024/04/08 06:56:04;;;;;;;8.00;3.22;;;13.40;99.90;;;;;;4984465;28;20108;-70
2024/04/08 06:58:30;;;;;;;5.38;3.42;;;13.40;99.90;;;;;;4983455;28;20523;-70
2024/04/08 07:00:56;;;;;;;5.60;3.22;;;13.40;99.90;;;;;;4985311;28;20045;-70
2024/04/08 07:03:21;;;;;;;5.40;3.28;;;13.50;99.90;;;;;;4984857;28;20652;-70
2024/04/08 07:05:47;;;;;;;7.03;4.30;;;13.40;99.90;;;;;;4985147;28;20101;-70
2024/04/08 07:08:13;;;;;;;9.23;4.07;;;13.40;99.90;;;;;;4982722;28;20385;-70
2024/04/08 07:10:38;;;;;;;8.35;3.88;;;13.40;99.90;;;;;;4986627;28;20042;-70
2024/04/08 07:13:04;;;;;;;7.28;4.00;;;13.30;99.90;;;;;;4986539;28;20048;-70
2024/04/08 07:15:30;;;;;;;5.53;3.45;;;13.30;99.90;;;;;;4982977;28;20039;-70
2024/04/08 07:17:55;;;;;;;6.30;3.45;;;13.30;99.90;;;;;;4985688;28;20128;-70
2024/04/08 07:20:22;;;;;;;7.72;4.03;;;13.30;99.90;;;;;;4982469;28;20043;-70
2024/04/08 07:22:47;;;;;;;5.85;3.10;;;13.30;99.90;;;;;;4984998;28;20042;-69
2024/04/08 07:25:13;;;;;;;5.03;3.47;;;13.40;99.90;;;;;;4983598;28;20124;-69
2024/04/08 07:27:39;;;;;;;5.35;3.15;;;13.40;99.90;;;;;;4984741;28;20045;-70
2024/04/08 07:30:05;;;;;;;4.90;3.63;;;13.50;99.90;;;;;;4985059;28;20038;-70
2024/04/08 07:32:32;;;;;;;5.82;3.17;;;13.50;99.90;;;;;;4984738;28;20489;-70
2024/04/08 07:34:58;;;;;;;7.93;3.20;;;13.50;99.90;;;;;;4984615;28;20489;-69
2024/04/08 07:37:25;;;;;;;6.57;3.35;;;13.60;99.90;;;;;;4979877;28;20097;-70
2024/04/08 07:39:51;;;;;;;3.70;2.60;;;13.80;99.90;;;;;;4982435;28;20038;-70
2024/04/08 07:42:16;;;;;;;5.10;2.90;;;14.00;99.90;;;;;;4983142;28;20045;-70
2024/04/08 07:44:42;;;;;;;6.45;3.22;;;14.20;99.90;;;;;;4980038;28;20038;-69
2024/04/08 07:47:08;;;;;;;4.60;2.95;;;14.20;99.90;;;;;;5016978;28;20473;-69
2024/04/08 07:49:34;;;;;;;6.78;2.80;;;14.70;99.90;;;;;;4981038;28;20049;-70
2024/04/08 07:51:59;;;;;;;6.00;2.88;;;14.40;99.90;;;;;;4983984;28;20412;-69
2024/04/08 07:54:25;;;;;;;6.65;2.85;;;14.50;99.90;;;;;;4982868;28;20042;-69
2024/04/08 07:56:50;;;;;;;5.88;2.55;;;14.70;99.90;;;;;;4983383;28;20133;-68
2024/04/08 07:59:17;;;;;;;7.28;2.40;;;14.80;99.90;;;;;;4986807;28;20048;-69
2024/04/08 08:01:42;;;;;;;9.32;2.45;;;14.90;99.90;;;;;;4989137;28;20056;-69
2024/04/08 08:04:08;;;;;;;6.22;3.35;;;15.00;99.90;;;;;;4986320;28;20592;-69
2024/04/08 08:06:35;;;;;;;4.90;3.13;;;15.00;99.90;;;;;;4988083;28;20053;-69
2024/04/08 08:09:01;;;;;;;5.03;3.20;;;15.10;99.90;;;;;;4985039;28;20420;-69
2024/04/08 08:11:26;;;;;;;6.38;3.53;;;15.10;99.90;;;;;;4983320;28;20042;-69
2024/04/08 08:13:52;;;;;;;4.30;3.17;;;15.20;99.90;;;;;;4981938;28;20097;-69
2024/04/08 08:16:17;;;;;;;5.10;3.08;;;15.30;99.90;;;;;;5015183;28;20053;-69
2024/04/08 08:18:45;;;;;;;5.28;2.85;;;15.30;99.90;;;;;;4982963;28;20112;-69
2024/04/08 08:21:11;;;;;;;8.77;3.90;;;15.50;99.90;;;;;;4984100;28;20451;-69
2024/04/08 08:23:36;;;;;;;5.22;3.53;;;15.70;99.90;;;;;;4981760;28;20137;-69
2024/04/08 08:26:02;;;;;;;8.00;3.67;;;15.80;99.90;;;;;;4986172;28;20039;-69
2024/04/08 08:28:28;;;;;;;6.78;3.70;;;16.00;99.90;;;;;;4982510;28;20053;-69
2024/04/08 08:30:53;;;;;;;5.63;4.00;;;16.00;99.90;;;;;;4983126;28;20053;-69
2024/04/08 08:33:21;;;;;;;6.00;4.75;;;16.10;99.90;;;;;;4984711;28;20042;-69
2024/04/08 08:35:47;;;;;;;6.28;4.82;;;16.00;99.90;;;;;;4982443;28;20288;-69
2024/04/08 08:38:13;;;;;;;6.10;4.00;;;16.10;99.90;;;;;;4981862;28;20042;-69
2024/04/08 08:40:48;;;;;;;5.63;3.72;;;16.10;99.90;;;;;;4983805;28;20058;-69
2024/04/08 08:43:13;;;;;;;6.17;3.80;;;16.10;99.90;;;;;;4982058;28;20050;-69
2024/04/08 08:45:46;;;;;;;5.68;3.63;;;16.30;99.90;;;;;;4982708;28;20434;-69
2024/04/08 08:48:12;;;;;;;6.53;4.10;;;16.40;99.90;;;;;;4979474;28;20042;-69
2024/04/08 08:50:39;;;;;;;6.57;4.53;;;16.30;99.90;;;;;;4965811;28;20112;-69
2024/04/08 08:53:05;;;;;;;8.20;5.00;;;16.20;99.90;;;;;;4982013;28;20039;-69
2024/04/08 08:55:32;;;;;;;5.93;4.53;;;16.20;99.90;;;;;;4980231;28;20043;-69
2024/04/08 08:57:59;;;;;;;8.02;5.05;;;16.20;99.90;;;;;;4984111;28;20073;-69
2024/04/08 09:00:25;;;;;;;6.30;4.22;;;16.20;99.90;;;;;;4978161;28;20042;-69
2024/04/08 09:02:51;;;;;;;8.50;4.50;;;16.20;99.90;;;;;;4981866;28;20473;-69
2024/04/08 09:05:17;;;;;;;6.82;4.63;;;16.20;99.90;;;;;;5012085;28;20062;-69
2024/04/08 09:07:43;;;;;;;5.53;4.40;;;16.30;99.90;;;;;;4984684;28;20464;-69
2024/04/08 09:10:08;;;;;;;7.75;4.63;;;16.30;99.90;;;;;;5014821;28;20125;-69
2024/04/08 09:12:34;;;;;;;7.63;3.78;;;16.40;99.90;;;;;;4984773;28;20038;-69
2024/04/08 09:15:00;;;;;;;5.78;4.32;;;16.60;99.90;;;;;;4983736;28;20042;-69
2024/04/08 09:17:26;;;;;;;7.65;3.80;;;16.80;99.90;;;;;;5015789;28;20053;-69
2024/04/08 09:19:51;;;;;;;3.92;3.25;;;16.90;99.90;;;;;;4982865;28;20051;-69
2024/04/08 09:22:17;;;;;;;5.90;3.88;;;17.00;99.90;;;;;;4983344;28;20042;-69
2024/04/08 09:24:43;;;;;;;5.68;3.85;;;17.30;99.90;;;;;;4982380;28;20030;-69
2024/04/08 09:27:10;;;;;;;5.60;3.75;;;17.50;99.90;;;;;;4969735;28;20042;-69
2024/04/08 09:29:35;;;;;;;7.32;4.28;;;17.70;99.90;;;;;;4984709;28;20042;-69
2024/04/08 09:32:01;;;;;;;7.07;3.55;;;17.70;99.90;;;;;;4986479;28;20049;-69
2024/04/08 09:34:28;;;;;;;5.90;3.65;;;17.30;99.90;;;;;;4983691;28;20038;-69
2024/04/08 09:36:55;;;;;;;7.32;3.65;;;17.00;99.90;;;;;;4979803;28;20043;-69
2024/04/08 09:53:59;;;;;;;4.72;3.75;;;17.40;99.90;;;;;;4982284;28;20042;-88
2024/04/08 10:04:56;;;;;;;7.57;3.10;;;17.90;99.90;;;;;;4981189;28;20052;-88
2024/04/08 11:03:07;;;;;;;2.42;1.40;;;20.40;99.90;;;;;;4984996;28;21059;-88
2024/04/08 11:30:35;;;;;;;3.08;1.33;;;20.30;99.90;;;;;;4927368;29;20067;-87
2024/04/08 13:18:51;;;;;;;2.88;0.90;;;18.50;99.90;;;;;;4890147;29;20043;-85
2024/04/08 13:21:55;;;;;;;2.63;1.10;;;18.30;99.90;;;;;;4889674;29;20063;-88
2024/04/08 13:24:39;;;;;;;;;;;18.20;99.90;;;;;;4860300;29;20052;-87
2024/04/08 13:31:29;;;;;;;2.63;0.93;;;18.20;99.90;;;;;;4891243;29;20128;-88
2024/04/08 14:01:19;;;;;;;2.58;1.15;;;18.20;99.90;;;;;;4873115;29;20658;-87
2024/04/08 14:04:21;;;;;;;4.03;1.25;;;18.30;99.90;;;;;;4854030;29;20462;-85
2024/04/08 14:23:04;;;;;;;3.92;1.20;;;18.30;99.90;;;;;;4943964;28;20046;-84
2024/04/08 14:34:08;;;;;;;1.50;1.02;;;18.20;99.90;;;;;;4938816;28;20082;-87
2024/04/08 14:48:01;;;;;;;2.75;1.50;;;18.00;99.90;;;;;;4983655;28;20043;-87
2024/04/08 14:51:06;;;;;;;2.97;1.27;;;17.90;99.90;;;;;;4985211;28;20097;-85
2024/04/08 14:53:33;;;;;;;5.80;2.17;;;17.90;99.90;;;;;;4954504;28;20523;-85
